Time;durP1;ratioP1;P1;durP2;ratioP2;P2;SDS_P1;SDS_P2;PMS_P1;PMS_P2;Temp;Humidity;BMP_temperature;BMP_pressure;BME280_temperature;BME280_humidity;BME280_pressure;Samples;Min_cycle;Max_cycle;Signal;HPM_P1;HPM_P2
2024/01/27 00:01:32;;;;;;;8.27;2.00;;;3.30;99.90;;;;;;5050087;28;20386;-54
2024/01/27 00:03:58;;;;;;;11.03;2.23;;;3.30;99.90;;;;;;5050186;28;20104;-54
2024/01/27 00:06:24;;;;;;;12.47;2.10;;;3.30;99.90;;;;;;5050308;28;20060;-54
2024/01/27 00:08:50;;;;;;;11.53;2.20;;;3.30;99.90;;;;;;5050203;28;20037;-52
2024/01/27 00:11:15;;;;;;;9.80;1.80;;;3.30;99.90;;;;;;5050521;28;20041;-55
2024/01/27 00:13:41;;;;;;;13.00;2.00;;;3.30;99.90;;;;;;5050225;28;20042;-49
2024/01/27 00:16:07;;;;;;;14.30;2.43;;;3.20;99.90;;;;;;5050462;28;20124;-50
2024/01/27 00:18:32;;;;;;;9.10;2.37;;;3.20;99.90;;;;;;5049665;28;20041;-51
2024/01/27 00:20:58;;;;;;;9.17;2.10;;;3.20;99.90;;;;;;5050005;28;20028;-50
2024/01/27 00:23:23;;;;;;;7.77;2.30;;;3.20;99.90;;;;;;5050366;28;20033;-50
2024/01/27 00:25:49;;;;;;;10.33;1.93;;;3.20;99.90;;;;;;5050789;28;20044;-49
2024/01/27 00:28:15;;;;;;;10.07;2.30;;;3.20;99.90;;;;;;5050178;28;20033;-53
2024/01/27 00:30:40;;;;;;;4.60;2.37;;;3.10;99.90;;;;;;5051759;28;20017;-54
2024/01/27 00:33:06;;;;;;;11.93;2.70;;;3.10;99.90;;;;;;5053721;28;20432;-51
2024/01/27 00:35:32;;;;;;;7.97;2.03;;;3.10;99.90;;;;;;5053574;28;20112;-53
2024/01/27 00:37:57;;;;;;;13.80;2.43;;;3.10;99.90;;;;;;5053457;28;20609;-54
2024/01/27 00:40:23;;;;;;;9.57;2.40;;;3.10;99.90;;;;;;5053597;28;20550;-53
2024/01/27 00:42:49;;;;;;;11.27;2.30;;;3.00;99.90;;;;;;5053327;28;20370;-50
2024/01/27 00:45:14;;;;;;;8.93;2.20;;;3.00;99.90;;;;;;5053364;28;20035;-54
2024/01/27 00:47:40;;;;;;;6.73;2.30;;;3.00;99.90;;;;;;5052997;28;20052;-53
2024/01/27 00:50:08;;;;;;;9.10;2.17;;;3.00;99.90;;;;;;5052931;28;20033;-54
2024/01/27 00:52:34;;;;;;;11.13;2.37;;;3.00;99.90;;;;;;5053196;28;20047;-54
2024/01/27 00:55:00;;;;;;;8.17;2.30;;;3.00;99.90;;;;;;5053107;28;20032;-54
2024/01/27 00:57:25;;;;;;;10.00;2.40;;;3.00;99.90;;;;;;5053161;28;20381;-54
2024/01/27 00:59:51;;;;;;;6.90;1.93;;;2.90;99.90;;;;;;5053086;28;20083;-54
2024/01/27 01:02:16;;;;;;;13.17;2.47;;;2.90;99.90;;;;;;5053183;28;20033;-54
2024/01/27 01:04:42;;;;;;;13.00;2.87;;;3.00;99.90;;;;;;5052601;28;20064;-54
2024/01/27 01:07:08;;;;;;;8.23;2.20;;;2.90;99.90;;;;;;5051014;28;20029;-53
2024/01/27 01:09:34;;;;;;;6.40;2.20;;;3.00;99.90;;;;;;5052170;28;20492;-52
2024/01/27 01:11:59;;;;;;;5.83;1.90;;;3.00;99.90;;;;;;5052534;28;20418;-52
2024/01/27 01:14:25;;;;;;;10.57;2.37;;;3.00;99.90;;;;;;5051329;28;20033;-54
2024/01/27 01:16:51;;;;;;;8.87;2.53;;;2.90;99.90;;;;;;5052713;28;20465;-54
2024/01/27 01:19:16;;;;;;;12.57;2.80;;;2.80;99.90;;;;;;5052348;28;20068;-54
2024/01/27 01:21:42;;;;;;;7.63;2.47;;;2.80;99.90;;;;;;5052887;28;20028;-54
2024/01/27 01:24:07;;;;;;;16.33;2.60;;;2.70;99.90;;;;;;5052275;28;20528;-54
2024/01/27 01:26:33;;;;;;;15.63;2.50;;;2.60;99.90;;;;;;5052706;28;20041;-54
2024/01/27 01:28:59;;;;;;;10.43;2.33;;;2.60;99.90;;;;;;5052294;28;20354;-54
2024/01/27 01:31:24;;;;;;;7.70;2.30;;;2.50;99.90;;;;;;5052630;28;20020;-54
2024/01/27 01:33:50;;;;;;;9.10;2.03;;;2.40;99.90;;;;;;5052091;28;20449;-54
2024/01/27 01:36:15;;;;;;;10.80;2.70;;;2.30;99.90;;;;;;5052367;28;20041;-54
2024/01/27 01:38:41;;;;;;;12.20;2.63;;;2.20;99.90;;;;;;5052331;28;20163;-53
2024/01/27 01:41:06;;;;;;;13.37;2.50;;;2.10;99.90;;;;;;5052395;28;20052;-49
2024/01/27 01:43:32;;;;;;;12.10;3.10;;;1.90;99.90;;;;;;5052429;28;20446;-54
2024/01/27 01:45:58;;;;;;;9.83;2.37;;;1.80;99.90;;;;;;5052318;28;20040;-54
2024/01/27 01:48:24;;;;;;;6.63;2.23;;;1.80;99.90;;;;;;5052175;28;20029;-53
2024/01/27 01:50:50;;;;;;;12.00;2.70;;;1.80;99.90;;;;;;5052030;28;20438;-53
2024/01/27 01:53:15;;;;;;;11.73;3.23;;;1.70;99.90;;;;;;5051735;28;20029;-54
2024/01/27 01:55:41;;;;;;;9.43;2.47;;;1.70;99.90;;;;;;5052267;28;20032;-53
2024/01/27 01:58:07;;;;;;;8.50;2.47;;;1.70;99.90;;;;;;5051978;28;20037;-54
2024/01/27 02:00:33;;;;;;;8.57;2.03;;;1.60;99.90;;;;;;5052287;28;20104;-53
2024/01/27 02:02:58;;;;;;;7.73;2.30;;;1.60;99.90;;;;;;5051696;28;20048;-53
2024/01/27 02:05:24;;;;;;;13.73;2.30;;;1.70;99.90;;;;;;5051961;28;20043;-53
2024/01/27 02:07:50;;;;;;;6.87;2.03;;;1.80;99.90;;;;;;5051713;28;20040;-54
2024/01/27 02:10:17;;;;;;;9.03;2.00;;;1.70;99.90;;;;;;5050514;28;20037;-53
2024/01/27 02:12:44;;;;;;;7.20;2.07;;;1.70;99.90;;;;;;5051811;28;20037;-53
2024/01/27 02:15:13;;;;;;;9.60;2.60;;;1.70;99.90;;;;;;5050356;28;20039;-53
2024/01/27 02:17:39;;;;;;;8.13;2.00;;;1.60;99.90;;;;;;5051552;28;20740;-53
2024/01/27 02:20:07;;;;;;;10.43;2.13;;;1.70;99.90;;;;;;5051635;28;20044;-54
2024/01/27 02:22:36;;;;;;;6.13;2.47;;;1.70;99.90;;;;;;5051432;28;20027;-53
2024/01/27 02:25:05;;;;;;;7.05;2.15;;;1.70;99.90;;;;;;5051389;28;20040;-53
2024/01/27 02:27:31;;;;;;;10.23;2.13;;;1.70;99.90;;;;;;5050072;28;20127;-54
2024/01/27 02:29:56;;;;;;;14.73;2.90;;;1.60;99.90;;;;;;5050516;28;20117;-52
2024/01/27 02:32:22;;;;;;;8.37;2.27;;;1.60;99.90;;;;;;5051401;28;20381;-52
2024/01/27 02:34:47;;;;;;;7.37;2.57;;;1.60;99.90;;;;;;5051761;28;20456;-51
2024/01/27 02:37:14;;;;;;;7.83;2.57;;;1.60;99.90;;;;;;5051798;28;20021;-54
2024/01/27 02:39:40;;;;;;;14.33;2.60;;;1.50;99.90;;;;;;5051094;28;20051;-54
2024/01/27 02:42:06;;;;;;;10.90;2.10;;;1.50;99.90;;;;;;5050141;28;20041;-54
2024/01/27 02:44:31;;;;;;;6.90;1.80;;;1.40;99.90;;;;;;5049858;28;20459;-54
2024/01/27 02:46:57;;;;;;;11.87;2.40;;;1.40;99.90;;;;;;5051212;28;20056;-54
2024/01/27 02:49:23;;;;;;;7.97;2.37;;;1.50;99.90;;;;;;5050922;28;20043;-54
2024/01/27 02:51:49;;;;;;;13.63;3.00;;;1.50;99.90;;;;;;5051481;28;20024;-54
2024/01/27 02:54:15;;;;;;;12.57;2.73;;;1.50;99.90;;;;;;5050490;28;20070;-50
2024/01/27 02:56:40;;;;;;;6.43;2.03;;;1.50;99.90;;;;;;5051398;28;20029;-49
2024/01/27 02:59:06;;;;;;;9.17;2.20;;;1.50;99.90;;;;;;5051120;28;20033;-50
2024/01/27 03:01:32;;;;;;;8.30;2.43;;;1.60;99.90;;;;;;5051483;28;20025;-49
2024/01/27 03:03:57;;;;;;;8.10;2.33;;;1.60;99.90;;;;;;5050808;28;20036;-49
2024/01/27 03:06:23;;;;;;;8.37;2.20;;;1.60;99.90;;;;;;5050070;28;20040;-54
2024/01/27 03:08:48;;;;;;;8.00;2.23;;;1.60;99.90;;;;;;5050757;28;20037;-54
2024/01/27 03:11:14;;;;;;;11.50;2.73;;;1.50;99.90;;;;;;5051056;28;20112;-54
2024/01/27 03:13:45;;;;;;;10.87;2.50;;;1.50;99.90;;;;;;5050744;28;20036;-52
2024/01/27 03:16:11;;;;;;;10.13;3.33;;;1.50;99.90;;;;;;5050970;28;20029;-54
2024/01/27 03:18:37;;;;;;;16.70;3.20;;;1.40;99.90;;;;;;5050692;28;20029;-54
2024/01/27 03:21:03;;;;;;;6.87;2.30;;;1.30;99.90;;;;;;5050745;28;20032;-54
2024/01/27 03:23:29;;;;;;;12.73;2.67;;;1.40;99.90;;;;;;5050586;28;20458;-53
2024/01/27 03:25:54;;;;;;;13.17;2.73;;;1.40;99.90;;;;;;5050840;28;20132;-53
2024/01/27 03:28:20;;;;;;;5.83;2.40;;;1.40;99.90;;;;;;5050322;28;20039;-54
2024/01/27 03:30:46;;;;;;;9.53;2.20;;;1.40;99.90;;;;;;5050577;28;20462;-54
2024/01/27 03:33:12;;;;;;;6.30;1.97;;;1.30;99.90;;;;;;5050504;28;20079;-54
2024/01/27 03:35:39;;;;;;;10.90;2.50;;;1.30;99.90;;;;;;5050095;28;20033;-51
2024/01/27 03:38:05;;;;;;;7.37;2.27;;;1.30;99.90;;;;;;5049834;28;20108;-50
2024/01/27 03:40:31;;;;;;;10.70;2.73;;;1.20;99.90;;;;;;5050786;28;20040;-53
2024/01/27 03:42:56;;;;;;;9.13;2.30;;;1.20;99.90;;;;;;5050195;28;20033;-49
2024/01/27 03:45:22;;;;;;;12.73;2.50;;;1.20;99.90;;;;;;5050565;28;20103;-53
2024/01/27 03:47:47;;;;;;;13.00;2.37;;;1.30;99.90;;;;;;5050237;28;20036;-53
2024/01/27 03:50:13;;;;;;;12.83;3.27;;;1.30;99.90;;;;;;5050578;28;20469;-53
2024/01/27 03:52:39;;;;;;;9.67;2.47;;;1.20;99.90;;;;;;5050404;28;20037;-53
2024/01/27 03:55:05;;;;;;;9.00;2.77;;;1.20;99.90;;;;;;5050454;28;20025;-53
2024/01/27 03:57:31;;;;;;;8.80;2.67;;;1.20;99.90;;;;;;5050298;28;20052;-52
2024/01/27 03:59:56;;;;;;;6.40;2.63;;;1.10;99.90;;;;;;5050206;28;20025;-54
2024/01/27 04:02:22;;;;;;;15.07;2.80;;;1.10;99.90;;;;;;5050585;28;20120;-50
2024/01/27 04:04:48;;;;;;;10.63;2.47;;;1.10;99.90;;;;;;5051997;28;20032;-52
2024/01/27 04:07:13;;;;;;;8.60;3.00;;;1.00;99.90;;;;;;5054194;28;20087;-53
2024/01/27 04:09:39;;;;;;;11.60;3.03;;;1.00;99.90;;;;;;5053942;28;20480;-49
2024/01/27 04:12:05;;;;;;;8.27;2.57;;;1.00;99.90;;;;;;5054130;28;20434;-51
2024/01/27 04:14:31;;;;;;;10.80;2.37;;;1.00;99.90;;;;;;5053957;28;20473;-51
2024/01/27 04:16:56;;;;;;;8.43;2.40;;;1.00;99.90;;;;;;5054090;28;20032;-52
2024/01/27 04:19:22;;;;;;;13.60;1.97;;;0.90;99.90;;;;;;5053784;28;20037;-50
2024/01/27 04:21:47;;;;;;;6.60;2.30;;;0.90;99.90;;;;;;5052866;28;20493;-48
2024/01/27 04:24:13;;;;;;;8.63;1.80;;;1.00;99.90;;;;;;5052814;28;20025;-49
2024/01/27 04:26:38;;;;;;;9.93;2.10;;;1.00;99.90;;;;;;5053096;28;20441;-51
2024/01/27 04:29:04;;;;;;;7.67;2.13;;;1.00;99.90;;;;;;5053437;28;20105;-49
2024/01/27 04:31:31;;;;;;;11.40;3.13;;;1.10;99.90;;;;;;5054603;28;20040;-50
2024/01/27 04:33:58;;;;;;;8.30;2.33;;;1.00;99.90;;;;;;5053503;28;20029;-53
2024/01/27 04:36:28;;;;;;;6.70;1.93;;;1.00;99.90;;;;;;5053729;28;20211;-52
2024/01/27 04:38:54;;;;;;;7.50;2.50;;;1.10;99.90;;;;;;5053525;28;20037;-52
2024/01/27 04:41:20;;;;;;;4.30;1.53;;;1.10;99.90;;;;;;5053514;28;20032;-53
2024/01/27 04:43:46;;;;;;;8.17;2.20;;;1.10;99.90;;;;;;5053239;28;20150;-53
2024/01/27 04:46:11;;;;;;;10.37;2.83;;;1.10;99.90;;;;;;5053728;28;20048;-49
2024/01/27 04:48:37;;;;;;;12.63;2.97;;;1.00;99.90;;;;;;5053205;28;20430;-53
2024/01/27 04:51:02;;;;;;;12.70;2.60;;;1.00;99.90;;;;;;5053399;28;20041;-53
2024/01/27 04:53:28;;;;;;;6.07;2.33;;;1.00;99.90;;;;;;5053109;28;20029;-53
2024/01/27 04:55:54;;;;;;;9.67;2.87;;;1.00;99.90;;;;;;5053140;28;20115;-52
2024/01/27 04:58:19;;;;;;;9.63;2.80;;;1.00;99.90;;;;;;5052949;28;20025;-53
2024/01/27 05:00:45;;;;;;;15.30;3.00;;;0.90;99.90;;;;;;5053352;28;20039;-53
2024/01/27 05:03:13;;;;;;;8.17;2.97;;;0.90;99.90;;;;;;5052910;28;20502;-52
2024/01/27 05:05:43;;;;;;;10.33;2.80;;;0.90;99.90;;;;;;5053003;28;20051;-52
2024/01/27 05:08:12;;;;;;;11.68;2.78;;;1.00;99.90;;;;;;5052784;28;20110;-53
2024/01/27 05:10:37;;;;;;;16.35;3.03;;;1.00;99.90;;;;;;5053056;28;20373;-54
2024/01/27 05:13:03;;;;;;;11.40;2.60;;;1.00;99.90;;;;;;5052832;28;20113;-53
2024/01/27 05:15:29;;;;;;;11.77;2.80;;;1.00;99.90;;;;;;5052585;28;20064;-53
2024/01/27 05:17:55;;;;;;;14.83;2.80;;;0.90;99.90;;;;;;5052481;28;20175;-50
2024/01/27 05:20:20;;;;;;;8.07;2.90;;;0.80;99.90;;;;;;5052955;28;20033;-51
2024/01/27 05:22:46;;;;;;;10.23;3.40;;;0.90;99.90;;;;;;5052661;28;20025;-51
2024/01/27 05:25:12;;;;;;;10.67;2.57;;;1.00;99.90;;;;;;5052774;28;20024;-50
2024/01/27 05:27:38;;;;;;;10.63;2.67;;;1.00;99.90;;;;;;5052896;28;20390;-49
2024/01/27 05:30:08;;;;;;;11.20;2.87;;;0.90;99.90;;;;;;5052680;28;20037;-50
2024/01/27 05:32:34;;;;;;;17.33;2.93;;;0.80;99.90;;;;;;5052789;28;20083;-51
2024/01/27 05:34:59;;;;;;;7.77;2.77;;;0.80;99.90;;;;;;5052963;28;20037;-54
2024/01/27 05:37:25;;;;;;;9.67;2.70;;;0.70;99.90;;;;;;5052349;28;20036;-52
2024/01/27 05:39:51;;;;;;;11.03;2.73;;;0.80;99.90;;;;;;5052538;28;20032;-50
2024/01/27 05:42:16;;;;;;;13.07;3.23;;;0.90;99.90;;;;;;5052929;28;20025;-55
2024/01/27 05:44:42;;;;;;;11.00;2.83;;;0.90;99.90;;;;;;5052187;28;20472;-52
2024/01/27 05:47:10;;;;;;;10.97;2.47;;;0.90;99.90;;;;;;5052633;28;20074;-54
2024/01/27 05:49:36;;;;;;;14.00;3.60;;;0.90;99.90;;;;;;5050971;28;20468;-53
2024/01/27 05:52:02;;;;;;;9.07;2.37;;;0.90;99.90;;;;;;5052252;28;20174;-55
2024/01/27 05:54:28;;;;;;;8.07;2.33;;;0.90;99.90;;;;;;5052031;28;20126;-52
2024/01/27 05:56:54;;;;;;;6.37;2.80;;;0.80;99.90;;;;;;5051907;28;20084;-53
2024/01/27 05:59:19;;;;;;;14.17;2.70;;;0.80;99.90;;;;;;5051742;28;20025;-54
2024/01/27 06:01:45;;;;;;;8.77;3.60;;;0.70;99.90;;;;;;5052105;28;20033;-54
2024/01/27 06:04:14;;;;;;;6.40;2.53;;;0.70;99.90;;;;;;5051664;28;20119;-53
2024/01/27 06:06:39;;;;;;;11.23;2.67;;;0.80;99.90;;;;;;5051691;28;20037;-54
2024/01/27 06:09:06;;;;;;;9.00;2.73;;;0.80;99.90;;;;;;5051488;28;20465;-54
2024/01/27 06:11:31;;;;;;;6.93;3.47;;;0.70;99.90;;;;;;5051897;28;20401;-51
2024/01/27 06:13:58;;;;;;;9.57;2.53;;;0.70;99.90;;;;;;5051516;28;20021;-55
2024/01/27 06:16:24;;;;;;;8.03;3.03;;;0.80;99.90;;;;;;5051722;28;20446;-53
2024/01/27 06:18:49;;;;;;;8.00;2.77;;;0.80;99.90;;;;;;5049915;28;20067;-54
2024/01/27 06:21:15;;;;;;;8.60;2.53;;;0.80;99.90;;;;;;5050338;28;20104;-52
2024/01/27 06:23:40;;;;;;;11.13;2.77;;;0.80;99.90;;;;;;5051309;28;20506;-52
2024/01/27 06:26:07;;;;;;;7.77;2.60;;;0.80;99.90;;;;;;5051421;28;20068;-54
2024/01/27 06:28:34;;;;;;;9.00;2.70;;;0.80;99.90;;;;;;5049027;28;20426;-53
2024/01/27 06:31:03;;;;;;;11.27;2.67;;;0.90;99.90;;;;;;5051496;28;20033;-54
2024/01/27 06:33:29;;;;;;;24.73;6.60;;;0.70;99.90;;;;;;5051100;28;20025;-54
2024/01/27 06:35:54;;;;;;;10.10;3.57;;;0.70;99.90;;;;;;5051270;28;20031;-53
2024/01/27 06:38:20;;;;;;;9.93;3.47;;;0.80;99.90;;;;;;5051639;28;20051;-50
2024/01/27 06:40:45;;;;;;;19.53;3.03;;;0.80;99.90;;;;;;5051422;28;20033;-50
2024/01/27 06:43:13;;;;;;;13.47;3.97;;;0.80;99.90;;;;;;5051087;28;20550;-54
2024/01/27 06:45:39;;;;;;;8.83;2.83;;;0.80;99.90;;;;;;5051257;28;20079;-55
2024/01/27 06:48:06;;;;;;;10.53;3.10;;;0.80;99.90;;;;;;5049561;28;20037;-54
2024/01/27 06:50:32;;;;;;;11.50;2.73;;;0.90;99.90;;;;;;5049884;28;20048;-54
2024/01/27 06:52:57;;;;;;;7.27;2.73;;;0.90;99.90;;;;;;5050996;28;20474;-52
2024/01/27 06:55:23;;;;;;;9.20;2.60;;;0.80;99.90;;;;;;5051102;28;20538;-55
2024/01/27 06:57:48;;;;;;;11.20;3.00;;;0.80;99.90;;;;;;5049607;28;20029;-55
2024/01/27 07:00:15;;;;;;;9.00;2.30;;;0.80;99.90;;;;;;5051071;28;20466;-54
2024/01/27 07:02:41;;;;;;;8.03;2.73;;;0.70;99.90;;;;;;5050805;28;20083;-53
2024/01/27 07:05:08;;;;;;;8.50;2.50;;;0.70;99.90;;;;;;5050738;28;20033;-54
2024/01/27 07:07:33;;;;;;;14.83;3.23;;;0.80;99.90;;;;;;5050806;28;20033;-54
2024/01/27 07:09:59;;;;;;;8.97;2.70;;;0.90;99.90;;;;;;5050040;28;20029;-52
2024/01/27 07:12:25;;;;;;;9.67;3.30;;;0.80;99.90;;;;;;5049123;28;20036;-53
2024/01/27 07:14:52;;;;;;;8.83;2.53;;;0.80;99.90;;;;;;5050367;28;20029;-50
2024/01/27 07:17:18;;;;;;;11.07;2.90;;;0.80;99.90;;;;;;5050807;28;20025;-54
2024/01/27 07:19:43;;;;;;;11.33;2.80;;;0.70;99.90;;;;;;5050057;28;20115;-50
2024/01/27 07:22:09;;;;;;;5.90;2.70;;;0.80;99.90;;;;;;5050765;28;20037;-54
2024/01/27 07:24:35;;;;;;;14.50;2.90;;;0.80;99.90;;;;;;5050532;28;20410;-51
2024/01/27 07:27:01;;;;;;;15.43;3.27;;;0.80;99.90;;;;;;5050592;28;20033;-50
2024/01/27 07:29:27;;;;;;;11.07;2.63;;;0.90;99.90;;;;;;5050340;28;20469;-54
2024/01/27 07:31:53;;;;;;;6.13;2.23;;;0.90;99.90;;;;;;5050845;28;20465;-50
2024/01/27 07:34:19;;;;;;;8.73;2.87;;;0.90;99.90;;;;;;5050429;28;20037;-51
2024/01/27 07:36:45;;;;;;;9.27;2.77;;;0.90;99.90;;;;;;5050363;28;20063;-51
2024/01/27 07:39:11;;;;;;;14.77;2.80;;;0.90;99.90;;;;;;5051028;28;20037;-54
2024/01/27 07:41:37;;;;;;;12.30;2.47;;;1.00;99.90;;;;;;5054833;28;20358;-54
2024/01/27 07:44:12;;;;;;;10.03;2.63;;;0.90;99.90;;;;;;5054332;28;20098;-51
2024/01/27 07:46:38;;;;;;;8.13;2.90;;;1.00;99.90;;;;;;5054473;28;20128;-54
2024/01/27 07:49:05;;;;;;;11.07;2.90;;;0.90;99.90;;;;;;5054465;28;20045;-51
2024/01/27 07:51:31;;;;;;;13.10;2.80;;;1.00;99.90;;;;;;5055008;28;20513;-54
2024/01/27 07:53:56;;;;;;;9.50;2.97;;;1.00;99.90;;;;;;5054371;28;20029;-54
2024/01/27 07:56:22;;;;;;;14.33;2.47;;;1.00;99.90;;;;;;5054482;28;20436;-54
2024/01/27 07:58:47;;;;;;;12.87;3.07;;;1.10;99.90;;;;;;5054265;28;20056;-54
2024/01/27 08:01:17;;;;;;;14.37;2.87;;;1.10;99.90;;;;;;5054435;28;20025;-51
2024/01/27 08:03:43;;;;;;;13.02;3.25;;;1.10;99.90;;;;;;5054283;28;20508;-56
2024/01/27 08:06:27;;;;;;;15.10;2.97;;;1.20;99.90;;;;;;5054202;28;20033;-54
2024/01/27 08:08:52;;;;;;;11.87;3.97;;;1.20;99.90;;;;;;5054048;28;20117;-53
2024/01/27 08:11:18;;;;;;;12.90;2.33;;;1.30;99.90;;;;;;5054295;28;20115;-50
2024/01/27 08:13:44;;;;;;;9.60;2.70;;;1.30;99.90;;;;;;5053850;28;20330;-51
2024/01/27 08:16:12;;;;;;;6.80;3.20;;;1.40;99.90;;;;;;5053981;28;20036;-54
2024/01/27 08:18:43;;;;;;;12.43;3.33;;;1.50;99.90;;;;;;5054046;28;20033;-54
2024/01/27 08:21:11;;;;;;;10.67;2.87;;;1.50;99.90;;;;;;5054142;28;20033;-55
2024/01/27 08:23:37;;;;;;;18.07;3.37;;;1.60;99.90;;;;;;5053763;28;20485;-53
2024/01/27 08:26:03;;;;;;;9.20;3.10;;;1.60;99.90;;;;;;5053840;28;20060;-51
2024/01/27 08:28:28;;;;;;;8.37;2.33;;;1.70;99.90;;;;;;5053632;28;20044;-52
2024/01/27 08:30:54;;;;;;;10.90;2.57;;;1.70;99.90;;;;;;5053919;28;20062;-51
2024/01/27 08:33:20;;;;;;;12.03;3.30;;;1.80;99.90;;;;;;5053456;28;20079;-53
2024/01/27 08:35:49;;;;;;;7.53;2.73;;;1.80;99.90;;;;;;5053619;28;20032;-50
2024/01/27 08:38:14;;;;;;;10.93;2.67;;;1.90;99.90;;;;;;5053939;28;20033;-53
2024/01/27 08:40:40;;;;;;;12.70;3.50;;;1.90;99.90;;;;;;5053727;28;20037;-54
2024/01/27 08:43:06;;;;;;;6.77;2.53;;;2.00;99.90;;;;;;5053470;28;20037;-49
2024/01/27 08:45:32;;;;;;;8.70;3.03;;;2.10;99.90;;;;;;5068745;28;20035;-52
2024/01/27 08:47:58;;;;;;;8.03;2.70;;;2.30;99.90;;;;;;5052989;28;20543;-53
2024/01/27 08:50:24;;;;;;;11.33;2.87;;;2.30;99.90;;;;;;5053181;28;20043;-48
2024/01/27 08:52:49;;;;;;;8.97;2.60;;;2.30;99.90;;;;;;5055876;28;20085;-50
2024/01/27 08:55:18;;;;;;;9.77;2.50;;;2.40;99.90;;;;;;5059162;28;20074;-52
2024/01/27 08:57:44;;;;;;;9.57;3.95;;;2.60;99.90;;;;;;5069360;28;20074;-52
2024/01/27 09:00:12;;;;;;;11.60;3.80;;;2.70;99.90;;;;;;5057411;28;20028;-50
2024/01/27 09:02:38;;;;;;;12.53;2.80;;;2.90;99.90;;;;;;5053569;28;20112;-51
2024/01/27 09:05:05;;;;;;;11.57;2.43;;;3.00;99.90;;;;;;5053345;28;20266;-50
2024/01/27 09:07:31;;;;;;;10.10;2.73;;;3.10;99.90;;;;;;5053982;28;20033;-54
2024/01/27 09:09:56;;;;;;;12.87;2.73;;;3.30;99.90;;;;;;5053216;28;20052;-50
2024/01/27 09:12:22;;;;;;;15.67;3.37;;;3.50;99.90;;;;;;5051982;28;20040;-49
2024/01/27 09:14:48;;;;;;;10.67;2.90;;;3.60;99.90;;;;;;5049562;28;20151;-51
2024/01/27 09:17:13;;;;;;;7.87;2.57;;;3.70;99.90;;;;;;5049664;28;20135;-49
2024/01/27 09:19:39;;;;;;;12.20;3.07;;;3.80;99.90;;;;;;5049867;28;20037;-53
2024/01/27 09:22:05;;;;;;;9.53;3.43;;;4.00;99.90;;;;;;5049179;28;20029;-50
2024/01/27 09:24:30;;;;;;;11.17;2.60;;;4.00;99.90;;;;;;5051537;28;20496;-52
2024/01/27 09:26:56;;;;;;;13.80;3.20;;;4.20;99.90;;;;;;5052752;28;20029;-54
2024/01/27 09:29:21;;;;;;;6.67;2.77;;;4.40;99.90;;;;;;5052477;28;20406;-53
2024/01/27 09:31:47;;;;;;;11.87;2.90;;;4.70;99.90;;;;;;5053009;28;20028;-54
2024/01/27 09:34:13;;;;;;;12.20;3.00;;;5.30;99.90;;;;;;5052597;28;20524;-54
2024/01/27 09:36:39;;;;;;;8.50;2.30;;;6.30;99.90;;;;;;5051335;28;20029;-54
2024/01/27 09:39:04;;;;;;;11.30;2.73;;;7.50;99.90;;;;;;5051810;28;20056;-55
2024/01/27 09:41:33;;;;;;;14.10;3.43;;;8.60;99.90;;;;;;5052294;28;20082;-53
2024/01/27 09:44:02;;;;;;;9.75;3.30;;;9.50;99.90;;;;;;5052007;28;20486;-50
2024/01/27 09:46:29;;;;;;;15.18;4.18;;;10.70;99.90;;;;;;5052212;28;20056;-52
2024/01/27 09:48:54;;;;;;;12.02;2.80;;;11.40;99.90;;;;;;5052031;28;20031;-54
2024/01/27 09:51:20;;;;;;;9.75;2.50;;;11.70;99.90;;;;;;5051524;28;20473;-50
2024/01/27 09:53:46;;;;;;;13.52;3.42;;;12.40;99.40;;;;;;5052078;28;20040;-53
2024/01/27 09:56:17;;;;;;;8.85;2.58;;;12.80;98.00;;;;;;5052165;28;20032;-53
2024/01/27 09:58:44;;;;;;;8.57;2.53;;;13.30;96.90;;;;;;5052221;28;20044;-53
2024/01/27 10:01:10;;;;;;;6.35;2.75;;;13.60;96.90;;;;;;5052219;28;20033;-54
2024/01/27 10:03:38;;;;;;;8.13;2.70;;;14.00;96.10;;;;;;5051958;28;20064;-52
2024/01/27 10:06:06;;;;;;;12.00;3.05;;;14.30;94.90;;;;;;5052275;28;20504;-53
2024/01/27 10:08:32;;;;;;;8.93;3.35;;;14.50;95.50;;;;;;5052095;28;20182;-53
2024/01/27 10:10:58;;;;;;;14.55;3.00;;;15.10;93.50;;;;;;5052096;28;20493;-49
2024/01/27 10:13:27;;;;;;;9.85;2.55;;;15.30;92.50;;;;;;5050392;28;20040;-49
2024/01/27 10:16:03;;;;;;;10.18;2.95;;;15.40;92.40;;;;;;5052066;28;20347;-51
2024/01/27 10:18:29;;;;;;;10.45;2.85;;;15.20;91.10;;;;;;5051905;28;20027;-50
2024/01/27 10:20:55;;;;;;;9.23;2.72;;;13.80;92.50;;;;;;5051950;28;20036;-53
2024/01/27 10:23:20;;;;;;;10.63;2.88;;;13.10;94.40;;;;;;5051741;28;20115;-51
2024/01/27 10:25:46;;;;;;;9.85;2.78;;;13.10;94.70;;;;;;5051574;28;20366;-54
2024/01/27 10:28:12;;;;;;;9.50;2.92;;;13.30;95.30;;;;;;5051397;28;20024;-53
2024/01/27 10:30:37;;;;;;;11.02;2.70;;;13.90;94.80;;;;;;5051719;28;20036;-54
2024/01/27 10:33:03;;;;;;;12.27;4.55;;;14.50;94.40;;;;;;5051458;28;20029;-55
2024/01/27 10:35:29;;;;;;;8.02;3.10;;;15.40;92.50;;;;;;5051254;28;20060;-52
2024/01/27 10:37:56;;;;;;;12.35;2.85;;;16.10;91.30;;;;;;5051434;28;20025;-53
2024/01/27 10:40:26;;;;;;;7.65;3.05;;;16.80;90.30;;;;;;5051406;28;20079;-54
2024/01/27 10:43:06;;;;;;;13.50;2.95;;;18.30;85.70;;;;;;5051095;28;20044;-55
2024/01/27 10:45:36;;;;;;;11.45;2.90;;;18.20;85.10;;;;;;5049893;28;20063;-54
2024/01/27 10:48:03;;;;;;;9.40;2.90;;;18.60;81.70;;;;;;5050873;28;20040;-53
2024/01/27 10:50:29;;;;;;;13.40;3.75;;;19.20;79.60;;;;;;5051221;28;20032;-55
2024/01/27 10:52:57;;;;;;;9.27;2.80;;;19.30;76.10;;;;;;5050908;28;20397;-50
2024/01/27 10:55:24;;;;;;;;;;;19.50;76.00;;;;;;5051767;28;20025;-55
2024/01/27 10:57:52;;;;;;;10.95;3.65;;;19.10;76.10;;;;;;5050930;28;20045;-54
2024/01/27 11:00:18;;;;;;;14.05;4.45;;;19.90;73.80;;;;;;5051062;28;20044;-55
2024/01/27 11:02:44;;;;;;;13.25;4.03;;;20.40;71.10;;;;;;5050871;28;20071;-55
2024/01/27 11:05:13;;;;;;;13.73;4.28;;;20.20;71.20;;;;;;5049591;28;20497;-54
2024/01/27 11:07:41;;;;;;;9.95;3.95;;;19.80;71.30;;;;;;5050853;28;20474;-52
2024/01/27 11:10:07;;;;;;;11.10;3.95;;;19.10;74.00;;;;;;5049194;28;20106;-54
2024/01/27 11:12:34;;;;;;;11.30;3.60;;;19.10;74.00;;;;;;5050892;28;20025;-54
2024/01/27 11:15:00;;;;;;;13.38;3.65;;;18.80;74.60;;;;;;5050103;28;20458;-55
2024/01/27 11:17:25;;;;;;;9.50;3.38;;;19.10;72.30;;;;;;5050890;28;20036;-55
2024/01/27 11:19:56;;;;;;;11.35;3.60;;;18.90;74.10;;;;;;5050621;28;20036;-54
2024/01/27 11:22:27;;;;;;;10.05;3.30;;;18.90;73.70;;;;;;5050805;28;20036;-54
2024/01/27 11:25:10;;;;;;;7.88;4.03;;;19.40;72.80;;;;;;5050540;28;20033;-53
2024/01/27 11:27:36;;;;;;;11.10;3.38;;;20.00;72.50;;;;;;5050414;28;20037;-51
2024/01/27 11:30:03;;;;;;;13.95;3.42;;;20.30;70.80;;;;;;5050607;28;20040;-53
2024/01/27 11:32:29;;;;;;;13.07;3.45;;;20.90;68.90;;;;;;5051022;28;20116;-50
2024/01/27 11:34:54;;;;;;;12.52;3.90;;;20.70;69.10;;;;;;5050515;28;20048;-54
2024/01/27 11:37:24;;;;;;;12.25;3.67;;;20.80;67.70;;;;;;5050610;28;20110;-54
2024/01/27 11:39:52;;;;;;;12.45;3.70;;;21.40;65.20;;;;;;5050240;28;20069;-55
2024/01/27 11:42:18;;;;;;;13.18;3.50;;;21.20;65.20;;;;;;5050508;28;20021;-54
2024/01/27 11:44:45;;;;;;;12.07;3.53;;;21.20;66.00;;;;;;5050396;28;20350;-53
2024/01/27 11:47:19;;;;;;;9.73;3.72;;;21.60;64.40;;;;;;5050370;28;20478;-54
2024/01/27 11:49:53;;;;;;;10.48;3.55;;;21.50;64.90;;;;;;5050370;28;20052;-52
2024/01/27 11:52:19;;;;;;;10.52;3.75;;;22.00;62.70;;;;;;5050726;28;20036;-55
2024/01/27 11:54:45;;;;;;;12.40;3.53;;;21.60;63.70;;;;;;5050200;28;20631;-52
2024/01/27 11:57:10;;;;;;;12.07;3.38;;;20.60;64.60;;;;;;5050394;28;20036;-51
2024/01/27 11:59:36;;;;;;;10.38;2.88;;;19.40;67.50;;;;;;5050259;28;20025;-54
2024/01/27 12:02:03;;;;;;;15.40;8.02;;;18.80;68.20;;;;;;5050586;28;20423;-51
2024/01/27 12:04:29;;;;;;;11.52;3.80;;;18.40;70.30;;;;;;5050223;28;20337;-52
2024/01/27 12:06:55;;;;;;;11.15;3.70;;;18.20;70.70;;;;;;5050312;28;20029;-51
2024/01/27 12:09:22;;;;;;;12.00;3.78;;;19.00;69.40;;;;;;5049868;28;20068;-53
2024/01/27 12:11:47;;;;;;;11.32;3.40;;;19.30;68.70;;;;;;5050504;28;20037;-53
2024/01/27 12:14:13;;;;;;;11.23;3.45;;;20.10;66.50;;;;;;5050111;28;20033;-51
2024/01/27 12:16:39;;;;;;;11.93;3.97;;;20.50;65.90;;;;;;5050431;28;20113;-55
2024/01/27 12:19:05;;;;;;;13.10;3.28;;;20.60;64.50;;;;;;5050065;28;20076;-52
2024/01/27 12:21:31;;;;;;;7.63;2.83;;;20.50;65.60;;;;;;5050140;28;20057;-54
2024/01/27 12:23:58;;;;;;;9.50;3.03;;;19.70;66.90;;;;;;5048636;28;20087;-52
2024/01/27 12:26:29;;;;;;;17.15;3.30;;;18.30;69.70;;;;;;5051357;28;20040;-52
2024/01/27 12:28:55;;;;;;;13.10;3.88;;;17.20;71.60;;;;;;5053982;28;20033;-50
2024/01/27 12:31:23;;;;;;;12.52;3.40;;;17.20;73.40;;;;;;5054628;28;20462;-50
2024/01/27 12:33:55;;;;;;;10.73;3.15;;;17.40;73.50;;;;;;5054311;28;20032;-52
2024/01/27 12:36:21;;;;;;;11.30;3.53;;;17.90;72.50;;;;;;5053736;28;20037;-50
2024/01/27 12:38:58;;;;;;;12.93;3.10;;;18.00;71.80;;;;;;5053775;28;20071;-50
2024/01/27 12:41:24;;;;;;;12.02;3.15;;;18.50;71.80;;;;;;5053825;28;20025;-52
2024/01/27 12:43:50;;;;;;;6.35;2.35;;;19.50;69.00;;;;;;5053544;28;20467;-51
2024/01/27 12:46:16;;;;;;;11.65;2.55;;;20.10;67.20;;;;;;5053567;28;20041;-51